CIN weather

Arthur N Neu Airport
Carroll, Iowa, United States

Public forecast

Using degrees Fahrenheit for public forecast. Weather courtesy of forecast.io.

Current aviation weather report (METAR) for Arthur N Neu Airport

Retrieved 2020/08/06 06:35 UTC (25 minutes ago):

KCIN 060635Z AUTO 15004KT 10SM FEW043 OVC050 16/16 A3002 RMK AO2

Closest aviation forecast (TAF) to Arthur N Neu Airport

Closest forecast is Fort Dodge Regional Airport, 40.3 nm (74.6 km) NE. Retrieved 2020/08/06 06:22 UTC (38 minutes ago):

TAF KFOD 060520Z 0606/0706 16005KT P6SM BKN070 FM061100 16006KT P6SM VCTS BKN045CB FM061200 15006KT P6SM BKN050 FM070300 15009KT P6SM BKN030